createdAt,value
2023-03-26T00:02:56.041Z,62.03
2023-03-26T00:08:17.932Z,62.13
2023-03-26T00:13:41.576Z,63.12
2023-03-26T00:19:04.198Z,64.60
2023-03-26T00:24:29.695Z,65.45
2023-03-26T00:29:51.115Z,65.97
2023-03-26T00:35:13.370Z,66.55
2023-03-26T00:40:36.890Z,67.56
2023-03-26T00:45:59.413Z,67.78
2023-03-26T00:51:21.753Z,67.73
2023-03-26T00:56:43.415Z,68.15
2023-03-26T01:02:06.855Z,68.11
2023-03-26T01:07:29.157Z,68.47
2023-03-26T01:12:50.958Z,68.49
2023-03-26T01:18:14.293Z,68.87
2023-03-26T01:23:44.751Z,68.87
2023-03-26T01:29:09.989Z,69.00
2023-03-26T01:34:43.062Z,69.11
2023-03-26T01:40:10.311Z,68.98
2023-03-26T01:45:35.057Z,69.15
2023-03-26T01:50:58.981Z,69.15
2023-03-26T01:56:51.078Z,69.16
2023-03-26T02:02:15.495Z,69.13
2023-03-26T02:08:00.463Z,69.02
2023-03-26T02:13:22.744Z,69.15
2023-03-26T02:18:45.863Z,69.02
2023-03-26T02:24:08.657Z,68.90
2023-03-26T02:29:31.690Z,68.93
2023-03-26T02:34:53.822Z,69.93
2023-03-26T02:40:18.375Z,69.92
2023-03-26T02:45:40.376Z,69.97
2023-03-26T02:51:03.168Z,69.83
2023-03-26T02:56:51.962Z,70.06
2023-03-26T03:02:34.394Z,69.62
2023-03-26T03:08:09.964Z,69.47
2023-03-26T03:13:32.954Z,69.45
2023-03-26T03:18:58.128Z,69.59
2023-03-26T03:24:27.280Z,69.35
2023-03-26T03:29:49.187Z,69.46
2023-03-26T03:35:41.716Z,69.24
2023-03-26T03:41:03.862Z,69.07
2023-03-26T03:46:26.682Z,68.80
2023-03-26T03:51:48.830Z,69.10
2023-03-26T03:57:33.394Z,69.50
2023-03-26T04:02:59.014Z,69.53
2023-03-26T04:08:22.899Z,69.74
2023-03-26T04:13:47.337Z,69.54
2023-03-26T04:19:22.997Z,69.28
2023-03-26T04:24:45.751Z,69.43
2023-03-26T04:30:24.032Z,69.18
2023-03-26T04:35:52.218Z,69.66
2023-03-26T04:41:15.928Z,69.93
2023-03-26T04:46:53.128Z,69.91
2023-03-26T04:52:21.253Z,70.00
2023-03-26T04:58:06.077Z,69.65
2023-03-26T05:03:45.995Z,69.43
2023-03-26T05:09:10.922Z,69.41
2023-03-26T05:14:52.322Z,69.20
2023-03-26T05:20:24.456Z,69.03
2023-03-26T05:25:47.271Z,69.10
2023-03-26T05:31:17.026Z,68.87
2023-03-26T05:36:41.083Z,68.90
2023-03-26T05:42:22.080Z,68.59
2023-03-26T05:48:01.842Z,68.07
2023-03-26T05:53:25.620Z,67.99
2023-03-26T05:59:08.210Z,67.82
2023-03-26T06:04:51.171Z,67.22
2023-03-26T06:10:23.916Z,66.99
2023-03-26T06:15:46.343Z,66.88
2023-03-26T06:21:19.480Z,66.18
2023-03-26T06:26:48.634Z,65.77
2023-03-26T06:32:43.221Z,65.36
2023-03-26T06:38:11.310Z,65.22
2023-03-26T06:43:34.007Z,65.11
2023-03-26T06:49:27.512Z,64.93
2023-03-26T06:55:10.619Z,64.88
2023-03-26T07:00:54.952Z,65.03
2023-03-26T07:06:36.413Z,64.98
2023-03-26T07:12:19.826Z,64.57
2023-03-26T07:18:11.516Z,64.50
2023-03-26T07:23:35.600Z,64.59
2023-03-26T07:29:47.457Z,64.37
2023-03-26T07:35:49.367Z,64.28
2023-03-26T07:41:59.873Z,63.62
2023-03-26T07:47:42.514Z,63.35
2023-03-26T07:53:15.731Z,63.04
2023-03-26T07:59:19.336Z,62.30
2023-03-26T08:05:19.072Z,61.79
2023-03-26T08:11:23.954Z,61.34
2023-03-26T08:16:48.503Z,60.89
2023-03-26T08:22:26.455Z,61.13
2023-03-26T08:28:05.263Z,60.46
2023-03-26T08:33:28.101Z,60.07
2023-03-26T08:38:52.633Z,59.80
2023-03-26T08:44:36.846Z,59.63
2023-03-26T08:50:22.081Z,59.84
2023-03-26T08:55:56.725Z,59.55
2023-03-26T09:01:41.281Z,58.59
2023-03-26T09:07:36.076Z,57.87
2023-03-26T09:13:08.378Z,58.70
2023-03-26T09:18:36.275Z,60.07
2023-03-26T09:24:20.009Z,60.73
2023-03-26T09:30:00.607Z,61.66
2023-03-26T09:35:54.097Z,62.23
2023-03-26T09:41:21.792Z,62.95
2023-03-26T09:46:49.337Z,63.34
2023-03-26T09:52:24.115Z,62.20
2023-03-26T09:57:58.474Z,62.12
2023-03-26T10:03:48.511Z,61.89
2023-03-26T10:09:42.856Z,61.09
2023-03-26T10:15:42.818Z,61.08
2023-03-26T10:21:27.525Z,60.12
2023-03-26T10:27:10.182Z,59.58
2023-03-26T10:32:44.389Z,60.10
2023-03-26T10:38:16.157Z,60.70
2023-03-26T10:44:08.802Z,62.05
2023-03-26T10:49:52.909Z,62.07
2023-03-26T10:55:35.109Z,60.92
2023-03-26T11:01:02.256Z,60.01
2023-03-26T11:06:57.105Z,58.06
2023-03-26T11:12:37.507Z,56.65
2023-03-26T11:18:16.119Z,54.92
2023-03-26T11:24:05.408Z,54.75
2023-03-26T11:29:50.127Z,52.90
2023-03-26T11:35:39.746Z,52.53
2023-03-26T11:41:04.082Z,51.80
2023-03-26T11:46:44.444Z,53.10
2023-03-26T11:52:07.776Z,53.02
2023-03-26T11:57:33.462Z,52.56
2023-03-26T12:03:00.421Z,51.81
2023-03-26T12:08:39.900Z,52.43
2023-03-26T12:14:05.904Z,51.93
2023-03-26T12:19:44.369Z,51.73
2023-03-26T12:25:18.527Z,51.03
2023-03-26T12:30:42.445Z,50.92
2023-03-26T12:36:26.862Z,50.29
2023-03-26T12:44:44.260Z,49.63
2023-03-26T12:47:58.180Z,48.59
2023-03-26T12:53:26.732Z,48.08
2023-03-26T12:59:11.856Z,46.70
2023-03-26T13:05:05.508Z,46.72
2023-03-26T13:10:55.769Z,46.86
2023-03-26T13:16:36.835Z,46.72
2023-03-26T13:22:24.718Z,46.30
2023-03-26T13:27:49.671Z,45.91
2023-03-26T13:33:37.481Z,46.00
2023-03-26T13:39:34.712Z,46.51
2023-03-26T13:45:19.572Z,46.96
2023-03-26T13:50:44.880Z,47.52
2023-03-26T13:56:09.659Z,47.80
2023-03-26T14:01:35.517Z,47.80
2023-03-26T14:07:12.490Z,47.62
2023-03-26T14:12:49.127Z,47.75
2023-03-26T14:18:36.647Z,48.00
2023-03-26T14:24:19.348Z,48.24
2023-03-26T14:29:57.825Z,47.97
2023-03-26T14:35:42.368Z,47.84
2023-03-26T14:41:22.163Z,48.18
2023-03-26T14:47:06.659Z,47.69
2023-03-26T14:52:48.854Z,47.59
2023-03-26T14:58:35.067Z,47.82
2023-03-26T15:04:23.660Z,47.90
2023-03-26T15:10:19.552Z,47.70
2023-03-26T15:16:13.002Z,47.10
2023-03-26T15:21:57.091Z,47.11
2023-03-26T15:27:58.553Z,46.68
2023-03-26T15:33:41.441Z,46.59
2023-03-26T15:39:09.496Z,46.19
2023-03-26T15:45:05.847Z,46.04
2023-03-26T15:51:06.608Z,46.20
2023-03-26T15:56:58.135Z,46.23
2023-03-26T16:02:42.810Z,47.04
2023-03-26T16:08:25.861Z,46.87
2023-03-26T16:14:12.669Z,46.25
2023-03-26T16:19:36.626Z,45.92
2023-03-26T16:25:26.924Z,48.94
2023-03-26T16:31:36.373Z,50.25
2023-03-26T16:36:54.455Z,50.99
2023-03-26T16:42:16.313Z,51.65
2023-03-26T16:47:51.932Z,51.73
2023-03-26T16:53:41.990Z,52.32
2023-03-26T16:59:45.459Z,52.75
2023-03-26T17:05:56.745Z,53.20
2023-03-26T17:11:26.918Z,53.78
2023-03-26T17:17:04.828Z,54.22
2023-03-26T17:22:48.410Z,54.84
2023-03-26T17:28:41.548Z,55.32
2023-03-26T17:34:47.248Z,55.72
2023-03-26T17:40:43.583Z,56.06
2023-03-26T17:46:25.103Z,56.94
2023-03-26T17:51:58.116Z,56.87
2023-03-26T17:57:23.604Z,56.63
2023-03-26T18:02:56.394Z,56.11
2023-03-26T18:08:28.142Z,55.57
2023-03-26T18:14:28.429Z,55.74
2023-03-26T18:19:54.165Z,56.19
2023-03-26T18:25:25.582Z,55.84
2023-03-26T18:30:51.519Z,54.57
2023-03-26T18:36:16.384Z,54.38
2023-03-26T18:41:42.013Z,53.92
2023-03-26T18:47:06.578Z,53.69
2023-03-26T18:52:30.593Z,53.88
2023-03-26T18:57:52.716Z,53.82
2023-03-26T19:03:21.222Z,53.87
2023-03-26T19:08:45.138Z,53.79
2023-03-26T19:14:20.179Z,54.47
2023-03-26T19:19:43.039Z,55.07
2023-03-26T19:25:05.282Z,56.00
2023-03-26T19:30:34.355Z,56.34
2023-03-26T19:36:05.055Z,56.56
2023-03-26T19:41:32.691Z,56.92
2023-03-26T19:47:03.181Z,57.04
2023-03-26T19:52:25.988Z,57.67
2023-03-26T19:57:49.556Z,58.12
2023-03-26T20:03:11.836Z,59.00
2023-03-26T20:08:34.153Z,59.97
2023-03-26T20:13:57.242Z,60.84
2023-03-26T20:19:19.380Z,62.25
2023-03-26T20:24:44.625Z,63.50
2023-03-26T20:30:08.054Z,64.94
2023-03-26T20:35:35.580Z,66.25
2023-03-26T20:41:01.877Z,67.28
2023-03-26T20:46:30.949Z,67.59
2023-03-26T20:51:54.273Z,68.34
2023-03-26T20:57:19.281Z,68.72
2023-03-26T21:02:45.637Z,69.05
2023-03-26T21:08:16.169Z,69.53
2023-03-26T21:13:49.464Z,69.89
2023-03-26T21:19:12.565Z,70.19
2023-03-26T21:24:49.828Z,70.36
2023-03-26T21:30:17.103Z,70.34
2023-03-26T21:35:40.679Z,70.45
2023-03-26T21:41:03.773Z,70.42
2023-03-26T21:46:26.321Z,70.80
2023-03-26T21:51:49.032Z,71.11
2023-03-26T21:57:35.871Z,71.07
2023-03-26T22:03:23.186Z,71.62
2023-03-26T22:08:46.659Z,71.69
2023-03-26T22:14:16.366Z,72.00
2023-03-26T22:19:38.266Z,72.62
2023-03-26T22:25:00.229Z,73.14
2023-03-26T22:30:22.012Z,73.01
2023-03-26T22:35:44.741Z,73.03
2023-03-26T22:41:07.729Z,73.30
2023-03-26T22:46:31.170Z,73.30
2023-03-26T22:51:53.080Z,73.19
2023-03-26T22:57:16.167Z,73.31
2023-03-26T23:02:38.715Z,73.29
2023-03-26T23:08:00.467Z,72.91
2023-03-26T23:13:22.804Z,72.60
2023-03-26T23:18:44.793Z,72.57
2023-03-26T23:24:06.964Z,73.07
2023-03-26T23:29:30.399Z,73.84
2023-03-26T23:34:52.775Z,74.60
2023-03-26T23:40:15.201Z,75.67
2023-03-26T23:45:37.772Z,75.80
2023-03-26T23:51:04.437Z,76.29
2023-03-26T23:56:27.902Z,76.11
